»·PEaware :: CGSTR KCMA-KDLO

CGSTR :: KCMA-KDLO

FLIGHT INFORMATION

Flight Status: Arrived
Operator: Unknown
More flights by this operator :: More flights under this callsign
Pilot: Francis E. (35205)
Aircraft: BEECH AIRCRAFT BARON
(BE58)
More flights by this aircraft type
Origin: KCMA Camarillo
United States
Destination: KDLO Delano Mun
United States
More flights between these airports :: More routes between these airports
Route: FIM V299 GMN V23 DELNO
File this flight plan on PilotEdge
Remarks: Alphabet challenge
Altitude:
(Current/Filed)
10,000ft
Speed:
(Current/Filed)
150kts
Departed: 02-Jan-22 10:13 PM
Arrived: 02-Jan-22 11:02 PM
Distance/Time
Traveled:
92nm/0:49
Distance/Time
To Go:
Arrived

Flight Plot

Page will automatically refresh every two minutes.

Flight plan parsing failed; only flown route is shown


Map Options




Map Legend


Flown Route
Filed Route
Departure Airport
Arrival Airport
Navaid (VOR, NDB)
Fix

Horizontal Profiles

Position Reports

Time Latitude Longitude Heading Altitude Ground
Speed
02-Jan-22 21:48 34.210957 -119.086508 90 73ft 0kts
02-Jan-22 21:49 34.210957 -119.086508 90 73ft 0kts
02-Jan-22 21:50 34.210957 -119.086508 90 73ft 0kts
02-Jan-22 21:51 34.210957 -119.086508 90 73ft 0kts
02-Jan-22 21:52 34.210957 -119.086508 90 73ft 0kts
02-Jan-22 21:53 34.210957 -119.086508 90 73ft 0kts
02-Jan-22 21:54 34.210957 -119.086508 90 73ft 0kts
02-Jan-22 21:55 34.210957 -119.086508 90 73ft 0kts
02-Jan-22 21:56 34.210957 -119.086508 90 73ft 0kts
02-Jan-22 21:57 34.210957 -119.086508 90 73ft 0kts
02-Jan-22 21:58 34.210957 -119.086508 90 73ft 0kts
02-Jan-22 21:59 34.210957 -119.086508 90 73ft 0kts
02-Jan-22 22:00 34.210957 -119.086508 90 73ft 0kts
02-Jan-22 22:01 34.210957 -119.086508 90 73ft 0kts
02-Jan-22 22:02 34.210957 -119.086508 90 73ft 0kts
02-Jan-22 22:03 34.210957 -119.086508 90 73ft 0kts
02-Jan-22 22:04 34.210957 -119.086508 90 73ft 0kts
02-Jan-22 22:05 34.210957 -119.086508 90 73ft 0kts
02-Jan-22 22:06 34.210957 -119.086508 90 73ft 0kts
02-Jan-22 22:07 34.210953 -119.086408 98 73ft 3kts
02-Jan-22 22:08 34.211076 -119.084660 43 74ft 5kts
02-Jan-22 22:09 34.212764 -119.084610 0 76ft 0kts
02-Jan-22 22:10 34.212764 -119.084610 0 76ft 0kts
02-Jan-22 22:11 34.213657 -119.084914 276 76ft 8kts
02-Jan-22 22:12 34.214736 -119.114808 283 809ft 127kts
02-Jan-22 22:13 34.224927 -119.157202 283 2245ft 136kts
02-Jan-22 22:14 34.233373 -119.202715 288 3432ft 144kts
02-Jan-22 22:15 34.243875 -119.246716 286 4722ft 139kts
02-Jan-22 22:16 34.254327 -119.291030 287 5853ft 138kts
02-Jan-22 22:17 34.265451 -119.336305 285 6798ft 142kts
02-Jan-22 22:18 34.275728 -119.382565 281 7665ft 144kts
02-Jan-22 22:19 34.273105 -119.432423 277 8276ft 151kts
02-Jan-22 22:20 34.300244 -119.427492 78 8723ft 153kts
02-Jan-22 22:21 34.308255 -119.380523 88 9549ft 144kts
02-Jan-22 22:22 34.311189 -119.329420 84 9817ft 162kts
02-Jan-22 22:23 34.314616 -119.272280 85 9755ft 174kts
02-Jan-22 22:24 34.321317 -119.213782 83 9732ft 177kts
02-Jan-22 22:25 34.328965 -119.154890 82 9835ft 181kts
02-Jan-22 22:26 34.337089 -119.093480 88 9766ft 184kts
02-Jan-22 22:27 34.341626 -119.031898 84 9755ft 185kts
02-Jan-22 22:28 34.347435 -118.970459 76 9770ft 184kts
02-Jan-22 22:29 34.354955 -118.910310 81 9871ft 182kts
02-Jan-22 22:30 34.368227 -118.850982 38 9624ft 190kts
02-Jan-22 22:31 34.416685 -118.857879 342 9824ft 180kts
02-Jan-22 22:32 34.465826 -118.873404 353 9728ft 187kts
02-Jan-22 22:33 34.516656 -118.876170 3 9822ft 182kts
02-Jan-22 22:34 34.567670 -118.873445 4 9790ft 185kts
02-Jan-22 22:35 34.618888 -118.871029 356 9752ft 185kts
02-Jan-22 22:36 34.670228 -118.873445 0 9700ft 186kts
02-Jan-22 22:37 34.721107 -118.865586 3 9829ft 177kts
02-Jan-22 22:38 34.771264 -118.864103 24 9601ft 190kts
02-Jan-22 22:39 34.818555 -118.869450 343 9780ft 183kts
02-Jan-22 22:40 34.866385 -118.889448 334 9816ft 183kts
02-Jan-22 22:41 34.915096 -118.907247 345 9840ft 183kts
02-Jan-22 22:42 34.963736 -118.926031 346 9811ft 184kts
02-Jan-22 22:43 35.012651 -118.943168 353 9476ft 187kts
02-Jan-22 22:44 35.063200 -118.959023 337 8780ft 188kts
02-Jan-22 22:45 35.113689 -118.973622 346 8179ft 186kts
02-Jan-22 22:46 35.163528 -118.989814 344 7595ft 185kts
02-Jan-22 22:47 35.212859 -119.007291 345 7078ft 184kts
02-Jan-22 22:48 35.262067 -119.022609 343 6628ft 182kts
02-Jan-22 22:49 35.310669 -119.038891 340 6016ft 182kts
02-Jan-22 22:50 35.359355 -119.054176 337 5391ft 181kts
02-Jan-22 22:51 35.407783 -119.065906 353 4871ft 178kts
02-Jan-22 22:52 35.454808 -119.084757 340 4796ft 176kts
02-Jan-22 22:53 35.500586 -119.108213 334 4622ft 176kts
02-Jan-22 22:54 35.540586 -119.131477 338 4188ft 145kts
02-Jan-22 22:55 35.577547 -119.150907 344 3210ft 145kts
02-Jan-22 22:56 35.612806 -119.172274 323 2530ft 143kts
02-Jan-22 22:57 35.647661 -119.190075 343 1578ft 121kts
02-Jan-22 22:58 35.678880 -119.205198 335 786ft 124kts
02-Jan-22 22:59 35.708423 -119.218599 336 973ft 107kts
02-Jan-22 23:00 35.735547 -119.231648 337 381ft 107kts
02-Jan-22 23:01 35.748434 -119.238332 245 316ft 7kts
02-Jan-22 23:02 35.748314 -119.238744 242 316ft 0kts
02-Jan-22 23:03 35.747644 -119.239239 158 316ft 13kts
02-Jan-22 23:04 35.745459 -119.238840 162 312ft 0kts
02-Jan-22 23:05 35.745459 -119.238840 162 312ft 0kts
02-Jan-22 23:06 35.745459 -119.238840 162 312ft 0kts

Navigation Log

Ident Type
Flight plan parsing failed, navigation log unavailable